Aviation Digital Data Service (ADDS)

Output produced by TAFs form (0325 UTC 28 September 2016)
found at http://aviationweather.gov/adds/tafs/
 
KABQ 272338Z 2800/2824 16005KT P6SM FEW100 
     FM282000 12010G18KT P6SM SCT100 BKN250